createdAt,value
2023-02-17T00:01:28.286Z,60.81
2023-02-17T00:03:56.533Z,60.44
2023-02-17T00:06:26.452Z,59.76
2023-02-17T00:08:56.371Z,59.79
2023-02-17T00:11:24.924Z,60.03
2023-02-17T00:13:56.133Z,59.66
2023-02-17T00:16:31.054Z,59.50
2023-02-17T00:19:01.561Z,58.62
2023-02-17T00:21:31.778Z,58.80
2023-02-17T00:24:01.600Z,59.10
2023-02-17T00:26:29.739Z,58.44
2023-02-17T00:28:59.775Z,59.07
2023-02-17T00:31:27.930Z,58.67
2023-02-17T00:33:57.321Z,58.92
2023-02-17T00:36:26.901Z,58.26
2023-02-17T00:38:56.729Z,58.93
2023-02-17T00:41:27.792Z,58.92
2023-02-17T00:43:56.218Z,58.48
2023-02-17T00:46:24.869Z,58.87
2023-02-17T00:48:53.745Z,58.79
2023-02-17T00:51:22.043Z,59.29
2023-02-17T00:53:50.748Z,59.34
2023-02-17T00:56:19.037Z,59.22
2023-02-17T00:58:48.313Z,59.24
2023-02-17T01:01:16.415Z,59.33
2023-02-17T01:03:44.648Z,59.59
2023-02-17T01:06:29.866Z,59.80
2023-02-17T01:08:57.852Z,59.49
2023-02-17T01:11:28.471Z,59.73
2023-02-17T01:13:58.489Z,60.03
2023-02-17T01:16:28.744Z,59.43
2023-02-17T01:18:57.352Z,59.75
2023-02-17T01:21:28.024Z,59.78
2023-02-17T01:23:58.140Z,59.85
2023-02-17T01:26:28.708Z,59.96
2023-02-17T01:28:58.171Z,59.97
2023-02-17T01:31:28.398Z,59.68
2023-02-17T01:33:58.531Z,59.62
2023-02-17T01:36:27.213Z,59.44
2023-02-17T01:38:55.179Z,59.30
2023-02-17T01:41:30.144Z,59.07
2023-02-17T01:44:10.103Z,59.12
2023-02-17T01:46:39.664Z,59.36
2023-02-17T01:49:16.529Z,59.18
2023-02-17T01:51:48.467Z,58.53
2023-02-17T01:54:20.150Z,59.04
2023-02-17T01:56:51.555Z,58.98
2023-02-17T01:59:22.907Z,59.01
2023-02-17T02:01:56.142Z,59.45
2023-02-17T02:04:29.884Z,59.27
2023-02-17T02:06:58.446Z,59.24
2023-02-17T02:09:33.239Z,59.32
2023-02-17T02:12:01.342Z,59.47
2023-02-17T02:14:30.891Z,59.25
2023-02-17T02:17:10.415Z,59.42
2023-02-17T02:20:20.584Z,59.22
2023-02-17T02:23:21.412Z,59.93
2023-02-17T02:26:20.161Z,59.28
2023-02-17T02:29:11.255Z,59.38
2023-02-17T02:31:48.702Z,59.44
2023-02-17T02:34:22.733Z,59.91
2023-02-17T02:36:57.968Z,59.72
2023-02-17T02:39:31.312Z,59.44
2023-02-17T02:42:03.480Z,59.51
2023-02-17T02:44:31.576Z,59.47
2023-02-17T02:47:00.898Z,59.54
2023-02-17T02:49:32.821Z,59.36
2023-02-17T02:52:07.219Z,59.49
2023-02-17T02:54:47.107Z,59.09
2023-02-17T02:57:27.439Z,59.34
2023-02-17T03:00:10.770Z,59.34
2023-02-17T03:02:46.040Z,59.61
2023-02-17T03:05:21.498Z,59.76
2023-02-17T03:07:55.798Z,59.56
2023-02-17T03:10:23.756Z,59.46
2023-02-17T03:12:51.998Z,59.25
2023-02-17T03:15:26.709Z,59.36
2023-02-17T03:17:58.436Z,59.68
2023-02-17T03:20:31.057Z,59.80
2023-02-17T03:22:59.206Z,59.25
2023-02-17T03:25:27.244Z,59.80
2023-02-17T03:27:55.229Z,59.26
2023-02-17T03:30:23.184Z,59.57
2023-02-17T03:32:51.252Z,59.18
2023-02-17T03:35:19.381Z,59.65
2023-02-17T03:37:49.000Z,59.73
2023-02-17T03:40:17.291Z,59.85
2023-02-17T03:42:45.217Z,59.75
2023-02-17T03:45:13.097Z,60.29
2023-02-17T03:47:41.440Z,59.93
2023-02-17T03:50:10.136Z,60.11
2023-02-17T03:52:38.487Z,60.04
2023-02-17T03:55:10.767Z,60.55
2023-02-17T03:57:38.804Z,60.28
2023-02-17T04:00:09.445Z,60.37
2023-02-17T04:02:37.759Z,60.31
2023-02-17T04:05:06.266Z,60.54
2023-02-17T04:07:34.719Z,60.57
2023-02-17T04:10:05.170Z,60.57
2023-02-17T04:12:35.613Z,60.42
2023-02-17T04:15:03.732Z,60.65
2023-02-17T04:17:32.020Z,60.63
2023-02-17T04:20:00.253Z,60.80
2023-02-17T04:22:28.220Z,60.59
2023-02-17T04:24:56.112Z,60.97
2023-02-17T04:27:24.347Z,60.91
2023-02-17T04:29:54.621Z,60.93
2023-02-17T04:32:22.678Z,61.19
2023-02-17T04:34:50.735Z,61.03
2023-02-17T04:37:19.043Z,61.42
2023-02-17T04:39:47.265Z,61.76
2023-02-17T04:42:15.230Z,61.97
2023-02-17T04:44:43.447Z,61.77
2023-02-17T04:47:13.625Z,61.33
2023-02-17T04:49:41.633Z,61.93
2023-02-17T04:52:10.036Z,61.82
2023-02-17T04:54:38.308Z,62.15
2023-02-17T04:57:06.199Z,62.29
2023-02-17T04:59:34.049Z,62.74
2023-02-17T05:02:02.056Z,62.63
2023-02-17T05:04:31.969Z,62.84
2023-02-17T05:07:02.237Z,62.63
2023-02-17T05:09:30.389Z,62.70
2023-02-17T05:11:59.222Z,62.87
2023-02-17T05:14:28.089Z,63.03
2023-02-17T05:16:56.068Z,62.67
2023-02-17T05:19:24.161Z,62.66
2023-02-17T05:21:53.858Z,62.63
2023-02-17T05:24:21.811Z,62.90
2023-02-17T05:26:49.886Z,63.08
2023-02-17T05:29:18.131Z,63.34
2023-02-17T05:31:46.243Z,63.80
2023-02-17T05:34:14.430Z,63.73
2023-02-17T05:36:42.796Z,63.71
2023-02-17T05:39:12.804Z,64.03
2023-02-17T05:41:40.967Z,64.11
2023-02-17T05:44:09.001Z,64.41
2023-02-17T05:46:37.008Z,64.54
2023-02-17T05:49:04.973Z,64.67
2023-02-17T05:51:32.984Z,64.53
2023-02-17T05:54:03.378Z,64.70
2023-02-17T05:56:32.965Z,64.92
2023-02-17T05:59:01.260Z,64.32
2023-02-17T06:01:29.708Z,64.48
2023-02-17T06:03:57.627Z,64.91
2023-02-17T06:06:25.551Z,64.80
2023-02-17T06:08:53.583Z,65.23
2023-02-17T06:11:21.737Z,65.13
2023-02-17T06:13:51.171Z,65.14
2023-02-17T06:16:19.383Z,65.38
2023-02-17T06:18:47.546Z,65.88
2023-02-17T06:21:15.552Z,65.98
2023-02-17T06:23:43.593Z,66.00
2023-02-17T06:26:11.898Z,66.57
2023-02-17T06:28:39.856Z,66.58
2023-02-17T06:31:09.724Z,66.63
2023-02-17T06:33:37.975Z,67.16
2023-02-17T06:36:07.083Z,67.02
2023-02-17T06:38:35.677Z,67.63
2023-02-17T06:41:03.767Z,67.86
2023-02-17T06:43:31.737Z,68.11
2023-02-17T06:46:00.008Z,68.32
2023-02-17T06:48:29.509Z,68.40
2023-02-17T06:50:57.347Z,68.99
2023-02-17T06:53:25.534Z,69.43
2023-02-17T06:55:53.797Z,69.26
2023-02-17T06:58:21.736Z,69.44
2023-02-17T07:00:50.054Z,69.57
2023-02-17T07:03:18.106Z,69.80
2023-02-17T07:05:47.469Z,69.84
2023-02-17T07:08:16.190Z,70.07
2023-02-17T07:10:44.593Z,69.94
2023-02-17T07:13:12.537Z,70.25
2023-02-17T07:15:40.529Z,70.12
2023-02-17T07:18:08.526Z,69.87
2023-02-17T07:20:38.232Z,70.21
2023-02-17T07:23:08.785Z,70.70
2023-02-17T07:25:36.928Z,70.42
2023-02-17T07:28:04.930Z,70.24
2023-02-17T07:30:33.390Z,70.36
2023-02-17T07:33:01.285Z,70.62
2023-02-17T07:35:29.227Z,70.83
2023-02-17T07:37:58.543Z,70.72
2023-02-17T07:40:28.882Z,70.93
2023-02-17T07:42:58.673Z,70.87
2023-02-17T07:45:26.576Z,71.13
2023-02-17T07:47:54.775Z,71.33
2023-02-17T07:50:23.465Z,71.04
2023-02-17T07:52:52.393Z,70.72
2023-02-17T07:55:20.486Z,70.79
2023-02-17T07:57:49.917Z,70.53
2023-02-17T08:00:20.131Z,71.44
2023-02-17T08:02:48.121Z,70.88
2023-02-17T08:05:16.212Z,71.23
2023-02-17T08:07:44.158Z,71.38
2023-02-17T08:10:31.387Z,71.28
2023-02-17T08:13:19.382Z,71.40
2023-02-17T08:15:47.805Z,71.53
2023-02-17T08:18:16.003Z,71.36
2023-02-17T08:20:44.567Z,70.93
2023-02-17T08:23:13.147Z,70.65
2023-02-17T08:25:41.471Z,71.16
2023-02-17T08:28:13.559Z,71.18
2023-02-17T08:30:42.261Z,70.71
2023-02-17T08:33:10.815Z,71.47
2023-02-17T08:35:39.304Z,71.37
2023-02-17T08:38:07.592Z,71.79
2023-02-17T08:40:36.038Z,71.44
2023-02-17T08:43:04.439Z,71.60
2023-02-17T08:45:34.523Z,71.75
2023-02-17T08:48:02.532Z,72.27
2023-02-17T08:50:31.633Z,71.89
2023-02-17T08:52:59.856Z,72.16
2023-02-17T08:55:30.455Z,72.00
2023-02-17T08:58:01.930Z,72.13
2023-02-17T09:00:30.419Z,72.08
2023-02-17T09:03:00.029Z,72.15
2023-02-17T09:05:28.078Z,72.66
2023-02-17T09:07:56.297Z,72.58
2023-02-17T09:10:24.673Z,72.58
2023-02-17T09:12:53.183Z,72.56
2023-02-17T09:15:21.652Z,73.22
2023-02-17T09:17:50.162Z,73.35
2023-02-17T09:20:25.089Z,73.17
2023-02-17T09:22:54.130Z,72.80
2023-02-17T09:25:22.496Z,73.15
2023-02-17T09:27:50.850Z,73.47
2023-02-17T09:30:20.392Z,73.65
2023-02-17T09:32:48.571Z,74.09
2023-02-17T09:35:19.644Z,74.27
2023-02-17T09:37:48.535Z,73.79
2023-02-17T09:40:20.179Z,74.32
2023-02-17T09:42:49.777Z,74.29
2023-02-17T09:45:23.610Z,73.58
2023-02-17T09:47:54.847Z,73.51
2023-02-17T09:50:29.949Z,73.46
2023-02-17T09:53:03.913Z,73.73
2023-02-17T09:55:39.240Z,73.52
2023-02-17T09:58:13.395Z,72.84
2023-02-17T10:00:46.637Z,73.01
2023-02-17T10:03:19.311Z,73.07
2023-02-17T10:05:54.559Z,73.11
2023-02-17T10:08:28.145Z,72.75
2023-02-17T10:11:01.853Z,73.14
2023-02-17T10:13:34.778Z,72.51
2023-02-17T10:16:07.096Z,72.87
2023-02-17T10:18:40.963Z,72.15
2023-02-17T10:21:15.633Z,72.44
2023-02-17T10:23:46.002Z,71.71
2023-02-17T10:26:23.925Z,72.02
2023-02-17T10:28:54.020Z,71.96
2023-02-17T10:31:38.028Z,72.40
2023-02-17T10:34:15.393Z,71.13
2023-02-17T10:36:54.611Z,71.41
2023-02-17T10:39:36.273Z,71.68
2023-02-17T10:42:05.304Z,71.34
2023-02-17T10:44:37.900Z,71.46
2023-02-17T10:47:06.881Z,71.70
2023-02-17T10:49:38.948Z,72.29
2023-02-17T10:52:16.071Z,73.42
2023-02-17T10:54:49.866Z,74.61
2023-02-17T10:57:20.497Z,74.68
2023-02-17T10:59:50.478Z,73.85
2023-02-17T11:02:21.827Z,73.86
2023-02-17T11:04:51.439Z,73.61
2023-02-17T11:07:33.974Z,72.00
2023-02-17T11:10:03.925Z,72.79
2023-02-17T11:12:40.160Z,70.78
2023-02-17T11:15:18.283Z,71.91
2023-02-17T11:17:47.397Z,71.78
2023-02-17T11:20:42.243Z,73.32
2023-02-17T11:23:25.702Z,74.13
2023-02-17T11:25:59.928Z,74.87
2023-02-17T11:28:28.586Z,75.24
2023-02-17T11:30:59.750Z,74.96
2023-02-17T11:33:33.167Z,74.36
2023-02-17T11:36:01.560Z,75.39
2023-02-17T11:38:42.314Z,76.15
2023-02-17T11:41:11.248Z,75.85
2023-02-17T11:43:40.877Z,76.46
2023-02-17T11:46:25.509Z,77.31
2023-02-17T11:49:25.234Z,77.99
2023-02-17T11:52:03.120Z,79.40
2023-02-17T11:54:53.068Z,79.97
2023-02-17T11:57:35.118Z,81.02
2023-02-17T12:00:15.110Z,81.60
2023-02-17T12:03:05.113Z,83.05
2023-02-17T12:05:44.662Z,83.48
2023-02-17T12:08:21.631Z,84.01
2023-02-17T12:11:05.321Z,84.89
2023-02-17T12:13:44.271Z,85.04
2023-02-17T12:16:25.380Z,85.11
2023-02-17T12:19:03.848Z,86.02
2023-02-17T12:21:51.639Z,87.57
2023-02-17T12:24:38.325Z,88.16
2023-02-17T12:27:24.630Z,89.32
2023-02-17T12:30:11.257Z,89.46
2023-02-17T12:32:54.723Z,88.83
2023-02-17T12:35:26.577Z,89.30
2023-02-17T12:37:57.929Z,89.92
2023-02-17T12:40:35.494Z,90.60
2023-02-17T12:43:16.199Z,90.91
2023-02-17T12:45:49.329Z,91.51
2023-02-17T12:48:24.290Z,90.83
2023-02-17T12:50:57.429Z,90.46
2023-02-17T12:53:35.806Z,90.37
2023-02-17T12:56:05.853Z,90.12
2023-02-17T12:58:39.585Z,89.68
2023-02-17T13:01:14.830Z,89.41
2023-02-17T13:03:43.088Z,89.93
2023-02-17T13:06:23.655Z,88.86
2023-02-17T13:08:56.204Z,89.26
2023-02-17T13:11:29.604Z,88.62
2023-02-17T13:14:10.763Z,88.25
2023-02-17T13:16:44.005Z,87.59
2023-02-17T13:19:12.265Z,87.34
2023-02-17T13:21:53.693Z,86.13
2023-02-17T13:24:34.490Z,85.74
2023-02-17T13:27:13.012Z,85.07
2023-02-17T13:29:42.327Z,84.85
2023-02-17T13:32:14.087Z,84.24
2023-02-17T13:34:44.360Z,84.08
2023-02-17T13:37:26.599Z,84.06
2023-02-17T13:39:54.979Z,83.31
2023-02-17T13:42:38.866Z,83.08
2023-02-17T13:45:19.298Z,82.33
2023-02-17T13:47:49.058Z,82.86
2023-02-17T13:50:35.216Z,82.42
2023-02-17T13:53:07.947Z,82.69
2023-02-17T13:55:36.535Z,82.32
2023-02-17T13:58:04.522Z,82.13
2023-02-17T14:00:34.113Z,81.03
2023-02-17T14:03:14.490Z,80.69
2023-02-17T14:05:45.942Z,80.67
2023-02-17T14:08:18.450Z,80.86
2023-02-17T14:10:47.744Z,80.68
2023-02-17T14:13:16.046Z,80.02
2023-02-17T14:15:54.015Z,79.92
2023-02-17T14:18:43.177Z,79.58
2023-02-17T14:21:15.851Z,79.45
2023-02-17T14:23:46.705Z,79.91
2023-02-17T14:26:27.831Z,80.13
2023-02-17T14:28:57.578Z,80.33
2023-02-17T14:31:28.232Z,79.80
2023-02-17T14:33:59.674Z,79.61
2023-02-17T14:36:43.477Z,79.67
2023-02-17T14:39:16.100Z,79.35
2023-02-17T14:41:45.149Z,79.54
2023-02-17T14:44:13.181Z,79.29
2023-02-17T14:46:42.714Z,78.94
2023-02-17T14:49:10.768Z,79.02
2023-02-17T14:51:39.173Z,78.20
2023-02-17T14:54:15.495Z,78.04
2023-02-17T14:56:47.918Z,77.73
2023-02-17T14:59:16.027Z,77.63
2023-02-17T15:01:45.405Z,77.96
2023-02-17T15:04:14.036Z,76.80
2023-02-17T15:06:47.205Z,74.86
2023-02-17T15:09:18.551Z,75.07
2023-02-17T15:12:00.700Z,75.78
2023-02-17T15:14:29.282Z,76.18
2023-02-17T15:16:58.767Z,75.71
2023-02-17T15:19:26.822Z,75.55
2023-02-17T15:21:54.791Z,75.70
2023-02-17T15:24:29.851Z,75.08
2023-02-17T15:26:58.554Z,75.46
2023-02-17T15:29:28.459Z,74.87
2023-02-17T15:32:00.332Z,75.59
2023-02-17T15:34:32.239Z,75.36
2023-02-17T15:37:00.354Z,75.28
2023-02-17T15:39:28.635Z,75.41
2023-02-17T15:42:01.435Z,75.04
2023-02-17T15:44:36.528Z,74.92
2023-02-17T15:47:06.063Z,75.67
2023-02-17T15:49:34.166Z,75.36
2023-02-17T15:52:02.418Z,75.19
2023-02-17T15:54:30.749Z,75.75
2023-02-17T15:56:59.298Z,76.13
2023-02-17T15:59:28.371Z,75.53
2023-02-17T16:01:56.900Z,75.80
2023-02-17T16:04:26.640Z,75.29
2023-02-17T16:06:54.622Z,75.05
2023-02-17T16:09:25.641Z,75.71
2023-02-17T16:12:01.599Z,75.75
2023-02-17T16:14:40.693Z,75.61
2023-02-17T16:17:23.366Z,76.62
2023-02-17T16:19:56.909Z,76.04
2023-02-17T16:22:25.142Z,76.66
2023-02-17T16:24:53.089Z,77.45
2023-02-17T16:27:50.909Z,77.28
2023-02-17T16:30:39.326Z,77.58
2023-02-17T16:33:12.986Z,77.14
2023-02-17T16:35:43.606Z,78.25
2023-02-17T16:38:16.791Z,77.25
2023-02-17T16:40:48.350Z,78.25
2023-02-17T16:43:17.705Z,77.42
2023-02-17T16:45:54.008Z,78.28
2023-02-17T16:48:23.580Z,78.03
2023-02-17T16:50:53.555Z,78.55
2023-02-17T16:53:21.834Z,77.96
2023-02-17T16:55:51.577Z,78.31
2023-02-17T16:58:23.004Z,78.25
2023-02-17T17:00:55.233Z,78.48
2023-02-17T17:03:27.265Z,78.21
2023-02-17T17:05:56.705Z,78.33
2023-02-17T17:08:24.918Z,77.78
2023-02-17T17:10:53.107Z,77.38
2023-02-17T17:13:21.462Z,77.95
2023-02-17T17:15:50.004Z,78.29
2023-02-17T17:18:23.840Z,78.30
2023-02-17T17:20:51.882Z,77.83
2023-02-17T17:23:21.320Z,77.13
2023-02-17T17:25:49.487Z,78.12
2023-02-17T17:28:20.035Z,77.83
2023-02-17T17:30:48.417Z,78.18
2023-02-17T17:33:16.538Z,78.12
2023-02-17T17:35:44.631Z,78.69
2023-02-17T17:38:15.908Z,78.17
2023-02-17T17:40:52.028Z,78.44
2023-02-17T17:43:23.466Z,78.15
2023-02-17T17:45:52.731Z,78.26
2023-02-17T17:48:21.010Z,78.46
2023-02-17T17:50:50.191Z,78.13
2023-02-17T17:53:18.370Z,78.07
2023-02-17T17:55:48.466Z,78.11
2023-02-17T17:58:17.269Z,78.28
2023-02-17T18:00:45.389Z,78.57
2023-02-17T18:03:13.464Z,78.29
2023-02-17T18:05:41.724Z,77.91
2023-02-17T18:08:11.120Z,78.68
2023-02-17T18:10:40.400Z,78.27
2023-02-17T18:13:12.995Z,77.83
2023-02-17T18:15:42.649Z,78.37
2023-02-17T18:18:11.899Z,78.89
2023-02-17T18:20:40.733Z,78.73
2023-02-17T18:23:09.059Z,78.73
2023-02-17T18:25:37.100Z,78.88
2023-02-17T18:28:05.200Z,78.71
2023-02-17T18:30:34.809Z,78.63
2023-02-17T18:33:03.085Z,78.90
2023-02-17T18:35:31.063Z,78.83
2023-02-17T18:37:59.151Z,78.75
2023-02-17T18:40:29.150Z,78.97
2023-02-17T18:42:57.438Z,78.71
2023-02-17T18:45:31.778Z,78.66
2023-02-17T18:48:01.403Z,78.62
2023-02-17T18:50:33.018Z,78.11
2023-02-17T18:53:03.023Z,78.25
2023-02-17T18:55:33.801Z,78.52
2023-02-17T18:58:01.747Z,79.05
2023-02-17T19:00:30.219Z,79.16
2023-02-17T19:02:58.303Z,78.63
2023-02-17T19:05:28.767Z,79.28
2023-02-17T19:07:57.431Z,79.76
2023-02-17T19:10:25.517Z,80.02
2023-02-17T19:12:53.812Z,80.15
2023-02-17T19:15:22.047Z,81.02
2023-02-17T19:17:51.299Z,81.76
2023-02-17T19:20:19.539Z,81.95
2023-02-17T19:22:49.393Z,81.86
2023-02-17T19:25:17.601Z,82.78
2023-02-17T19:27:45.730Z,82.75
2023-02-17T19:30:14.777Z,83.20
2023-02-17T19:32:42.883Z,84.13
2023-02-17T19:35:11.792Z,84.10
2023-02-17T19:37:40.276Z,85.16
2023-02-17T19:40:10.695Z,84.82
2023-02-17T19:42:40.295Z,84.82
2023-02-17T19:45:08.649Z,85.01
2023-02-17T19:47:36.662Z,84.79
2023-02-17T19:50:04.978Z,85.54
2023-02-17T19:52:33.199Z,83.69
2023-02-17T19:55:01.478Z,83.19
2023-02-17T19:57:31.091Z,83.32
2023-02-17T19:59:59.053Z,83.43
2023-02-17T20:02:28.037Z,83.01
2023-02-17T20:04:56.074Z,83.38
2023-02-17T20:07:24.053Z,83.13
2023-02-17T20:09:52.131Z,83.57
2023-02-17T20:12:20.114Z,82.98
2023-02-17T20:14:49.762Z,82.99
2023-02-17T20:17:17.907Z,82.67
2023-02-17T20:19:46.112Z,82.30
2023-02-17T20:22:14.182Z,82.85
2023-02-17T20:24:42.729Z,81.49
2023-02-17T20:27:11.885Z,81.05
2023-02-17T20:29:40.117Z,82.09
2023-02-17T20:32:09.802Z,81.32
2023-02-17T20:34:41.255Z,81.79
2023-02-17T20:37:10.384Z,82.15
2023-02-17T20:39:42.193Z,81.51
2023-02-17T20:42:10.703Z,81.76
2023-02-17T20:44:38.862Z,81.14
2023-02-17T20:47:07.742Z,81.03
2023-02-17T20:49:37.595Z,80.77
2023-02-17T20:52:07.182Z,81.32
2023-02-17T20:54:35.856Z,80.66
2023-02-17T20:57:05.088Z,80.98
2023-02-17T20:59:34.604Z,80.73
2023-02-17T21:02:02.713Z,80.71
2023-02-17T21:04:30.763Z,80.06
2023-02-17T21:07:01.451Z,80.06
2023-02-17T21:09:29.708Z,80.49
2023-02-17T21:11:57.753Z,79.57
2023-02-17T21:14:25.689Z,79.28
2023-02-17T21:16:53.795Z,79.64
2023-02-17T21:19:22.135Z,79.93
2023-02-17T21:21:50.084Z,79.43
2023-02-17T21:24:19.779Z,79.26
2023-02-17T21:26:47.827Z,78.22
2023-02-17T21:29:16.106Z,78.87
2023-02-17T21:31:44.122Z,78.40
2023-02-17T21:34:12.106Z,78.53
2023-02-17T21:36:40.336Z,78.13
2023-02-17T21:39:08.426Z,78.22
2023-02-17T21:41:37.785Z,78.29
2023-02-17T21:44:23.747Z,78.03
2023-02-17T21:46:53.695Z,77.71
2023-02-17T21:49:23.392Z,77.34
2023-02-17T21:51:52.256Z,77.30
2023-02-17T21:54:20.219Z,77.30
2023-02-17T21:56:49.636Z,77.98
2023-02-17T21:59:18.660Z,77.73
2023-02-17T22:01:46.596Z,77.70
2023-02-17T22:04:14.920Z,76.76
2023-02-17T22:06:43.376Z,78.06
2023-02-17T22:09:14.788Z,76.91
2023-02-17T22:11:44.041Z,76.63
2023-02-17T22:14:16.038Z,77.62
2023-02-17T22:16:44.449Z,76.66
2023-02-17T22:19:15.971Z,76.85
2023-02-17T22:21:44.434Z,76.87
2023-02-17T22:24:13.160Z,76.72
2023-02-17T22:26:41.216Z,76.12
2023-02-17T22:29:09.183Z,76.25
2023-02-17T22:31:38.654Z,76.23
2023-02-17T22:34:10.004Z,76.86
2023-02-17T22:36:38.486Z,76.37
2023-02-17T22:39:08.747Z,75.83
2023-02-17T22:41:38.847Z,76.48
2023-02-17T22:44:07.167Z,76.31
2023-02-17T22:46:36.048Z,75.93
2023-02-17T22:49:07.139Z,75.29
2023-02-17T22:51:38.967Z,76.26
2023-02-17T22:54:08.432Z,76.29
2023-02-17T22:56:37.120Z,75.93
2023-02-17T22:59:05.897Z,75.68
2023-02-17T23:01:35.787Z,75.97
2023-02-17T23:04:06.588Z,75.57
2023-02-17T23:06:37.329Z,75.70
2023-02-17T23:09:06.482Z,75.00
2023-02-17T23:11:51.434Z,75.33
2023-02-17T23:14:21.805Z,75.05
2023-02-17T23:16:50.470Z,74.46
2023-02-17T23:19:22.339Z,74.56
2023-02-17T23:21:52.300Z,75.06
2023-02-17T23:24:21.386Z,75.06
2023-02-17T23:26:50.073Z,75.36
2023-02-17T23:29:19.219Z,75.93
2023-02-17T23:31:47.221Z,75.73
2023-02-17T23:34:16.395Z,75.33
2023-02-17T23:36:46.640Z,75.67
2023-02-17T23:39:15.081Z,75.34
2023-02-17T23:41:43.101Z,75.52
2023-02-17T23:44:13.672Z,75.10
2023-02-17T23:46:43.202Z,74.83
2023-02-17T23:49:14.055Z,74.98
2023-02-17T23:51:42.567Z,74.97
2023-02-17T23:54:11.878Z,75.27
2023-02-17T23:56:40.313Z,75.19
2023-02-17T23:59:08.609Z,75.39
